createdAt,value
2022-11-17T00:00:06.385Z,95657.53
2022-11-17T00:05:11.129Z,95646.38
2022-11-17T00:10:13.454Z,95634.38
2022-11-17T00:15:15.295Z,95630.53
2022-11-17T00:20:35.586Z,95631.91
2022-11-17T00:25:37.550Z,95632.22
2022-11-17T00:30:57.780Z,95640.63
2022-11-17T00:35:59.591Z,95625.94
2022-11-17T00:41:01.486Z,95630.81
2022-11-17T00:46:03.200Z,95631.09
2022-11-17T00:51:05.819Z,95637.09
2022-11-17T00:56:07.578Z,95634.38
2022-11-17T01:01:09.573Z,95621.34
2022-11-17T01:06:14.154Z,95618.91
2022-11-17T01:11:18.702Z,95627.31
2022-11-17T01:16:21.235Z,95629.69
2022-11-17T01:21:25.212Z,95625.53
2022-11-17T01:26:30.628Z,95620.53
2022-11-17T01:31:35.355Z,95623.16
2022-11-17T01:36:58.511Z,95607.47
2022-11-17T01:42:05.245Z,95604.19
2022-11-17T01:47:17.580Z,95604.19
2022-11-17T01:52:19.390Z,95599.81
2022-11-17T01:57:32.399Z,95583.72
2022-11-17T02:02:35.772Z,95587.97
2022-11-17T02:07:40.641Z,95574.13
2022-11-17T02:12:43.633Z,95574.59
2022-11-17T02:17:45.453Z,95570.78
2022-11-17T02:22:59.533Z,95576.97
2022-11-17T02:28:15.229Z,95559.81
2022-11-17T02:33:35.276Z,95560.97
2022-11-17T02:38:49.099Z,95551.72
2022-11-17T02:44:09.118Z,95536.19
2022-11-17T02:49:38.361Z,95531.13
2022-11-17T02:54:40.067Z,95525.44
2022-11-17T02:59:48.080Z,95529.97
2022-11-17T03:05:05.513Z,95513.09
2022-11-17T03:10:13.539Z,95504.34
2022-11-17T03:15:24.629Z,95494.34
2022-11-17T03:20:34.665Z,95481.06
2022-11-17T03:25:38.177Z,95484.25
2022-11-17T03:30:43.820Z,95479.03
2022-11-17T03:36:00.911Z,95468.97
2022-11-17T03:41:05.589Z,95445.09
2022-11-17T03:46:13.025Z,95436.19
2022-11-17T03:51:21.893Z,95425.66
2022-11-17T03:56:50.746Z,95428.91
2022-11-17T04:01:52.976Z,95417.97
2022-11-17T04:06:54.727Z,95404.94
2022-11-17T04:12:15.002Z,95390.22
2022-11-17T04:17:16.639Z,95392.41
2022-11-17T04:22:18.328Z,95401.09
2022-11-17T04:27:38.929Z,95384.19
2022-11-17T04:32:40.657Z,95373.25
2022-11-17T04:37:42.372Z,95370.00
2022-11-17T04:42:43.986Z,95390.56
2022-11-17T04:47:45.628Z,95389.00
2022-11-17T04:52:47.444Z,95378.03
2022-11-17T04:57:49.103Z,95366.13
2022-11-17T05:02:50.959Z,95380.25
2022-11-17T05:07:52.651Z,95392.16
2022-11-17T05:13:12.777Z,95408.94
2022-11-17T05:18:14.446Z,95413.81
2022-11-17T05:23:34.727Z,95406.69
2022-11-17T05:28:36.581Z,95401.75
2022-11-17T05:33:38.635Z,95431.41
2022-11-17T05:38:41.208Z,95462.22
2022-11-17T05:43:43.438Z,95464.69
2022-11-17T05:48:46.330Z,95476.84
2022-11-17T05:53:48.397Z,95446.31
2022-11-17T05:58:54.123Z,95464.56
2022-11-17T06:04:02.169Z,95459.34
2022-11-17T06:09:04.529Z,95469.66
2022-11-17T06:14:06.405Z,95480.78
2022-11-17T06:19:16.208Z,95461.13
2022-11-17T06:24:18.767Z,95456.94
2022-11-17T06:29:20.540Z,95455.22
2022-11-17T06:34:22.261Z,95453.84
2022-11-17T06:39:24.056Z,95437.34
2022-11-17T06:44:25.712Z,95419.09
2022-11-17T06:49:27.434Z,95427.03
2022-11-17T06:54:29.176Z,95413.28
2022-11-17T06:59:31.031Z,95449.63
2022-11-17T07:04:32.796Z,95448.81
2022-11-17T07:09:34.491Z,95433.34
2022-11-17T07:14:36.149Z,95450.84
2022-11-17T07:19:38.243Z,95466.19
2022-11-17T07:24:40.295Z,95458.16
2022-11-17T07:29:41.923Z,95476.13
2022-11-17T07:34:43.584Z,95450.94
2022-11-17T07:39:45.263Z,95412.91
2022-11-17T07:44:46.943Z,95436.34
2022-11-17T07:49:48.860Z,95425.63
2022-11-17T07:54:50.536Z,95427.97
2022-11-17T07:59:52.191Z,95410.59
2022-11-17T08:04:53.835Z,95432.31
2022-11-17T08:09:55.461Z,95433.31
2022-11-17T08:14:57.150Z,95455.97
2022-11-17T08:19:58.842Z,95456.63
2022-11-17T08:25:00.512Z,95452.00
2022-11-17T08:30:02.171Z,95445.66
2022-11-17T08:35:06.797Z,95444.75
2022-11-17T08:40:09.236Z,95461.91
2022-11-17T08:45:11.111Z,95442.97
2022-11-17T08:50:13.995Z,95455.91
2022-11-17T08:55:15.847Z,95457.97
2022-11-17T09:00:20.635Z,95447.69
2022-11-17T09:05:23.338Z,95446.50
2022-11-17T09:10:25.138Z,95440.66
2022-11-17T09:15:26.857Z,95422.06
2022-11-17T09:20:29.008Z,95427.94
2022-11-17T09:25:30.825Z,95431.47
2022-11-17T09:30:32.493Z,95415.84
2022-11-17T09:35:34.218Z,95422.22
2022-11-17T09:40:38.555Z,95409.19
2022-11-17T09:45:40.600Z,95465.59
2022-11-17T09:50:44.964Z,95449.41
2022-11-17T09:55:50.239Z,95437.09
2022-11-17T10:00:53.734Z,95458.94
2022-11-17T10:05:56.329Z,95476.72
2022-11-17T10:10:57.926Z,95496.16
2022-11-17T10:16:07.886Z,95493.84
2022-11-17T10:21:09.663Z,95479.97
2022-11-17T10:26:14.024Z,95472.06
2022-11-17T10:31:17.687Z,95472.16
2022-11-17T10:36:26.652Z,95470.75
2022-11-17T10:41:42.644Z,95492.59
2022-11-17T10:47:00.560Z,95493.69
2022-11-17T10:52:16.346Z,95490.97
2022-11-17T10:57:23.800Z,95468.63
2022-11-17T11:02:38.174Z,95478.63
2022-11-17T11:07:40.881Z,95478.75
2022-11-17T11:12:53.579Z,95474.28
2022-11-17T11:17:55.234Z,95453.81
2022-11-17T11:22:59.822Z,95444.94
2022-11-17T11:28:35.483Z,95440.75
2022-11-17T11:33:41.380Z,95442.91
2022-11-17T11:39:05.179Z,95431.25
2022-11-17T11:44:25.596Z,95433.06
2022-11-17T11:50:00.944Z,95427.38
2022-11-17T11:55:18.915Z,95414.13
2022-11-17T12:00:20.864Z,95422.84
2022-11-17T12:05:38.903Z,95414.81
2022-11-17T12:10:58.884Z,95404.34
2022-11-17T12:16:17.974Z,95402.41
2022-11-17T12:21:30.451Z,95393.03
2022-11-17T12:26:33.736Z,95397.72
2022-11-17T12:31:44.100Z,95400.47
2022-11-17T12:37:14.825Z,95407.28
2022-11-17T12:42:16.534Z,95412.59
2022-11-17T12:47:24.514Z,95416.78
2022-11-17T12:52:40.566Z,95389.06
2022-11-17T12:57:45.667Z,95399.22
2022-11-17T13:03:19.251Z,95405.69
2022-11-17T13:08:23.690Z,95415.66
2022-11-17T13:13:25.368Z,95415.16
2022-11-17T13:18:33.049Z,95412.09
2022-11-17T13:23:44.457Z,95406.78
2022-11-17T13:28:47.573Z,95411.63
2022-11-17T13:34:17.684Z,95412.28
2022-11-17T13:39:24.246Z,95411.31
2022-11-17T13:44:28.945Z,95419.06
2022-11-17T13:49:34.611Z,95429.41
2022-11-17T13:54:36.337Z,95413.56
2022-11-17T13:59:39.086Z,95418.09
2022-11-17T14:04:41.588Z,95411.94
2022-11-17T14:09:43.285Z,95419.84
2022-11-17T14:14:45.325Z,95415.16
2022-11-17T14:19:47.793Z,95412.28
2022-11-17T14:24:50.086Z,95418.72
2022-11-17T14:29:51.824Z,95420.69
2022-11-17T14:34:53.530Z,95432.66
2022-11-17T14:39:55.472Z,95435.53
2022-11-17T14:44:57.207Z,95425.84
2022-11-17T14:49:58.891Z,95432.06
2022-11-17T14:55:00.887Z,95421.69
2022-11-17T15:00:04.150Z,95431.84
2022-11-17T15:05:06.983Z,95437.09
2022-11-17T15:10:08.912Z,95441.88
2022-11-17T15:15:10.768Z,95439.88
2022-11-17T15:20:12.584Z,95431.66
2022-11-17T15:25:14.336Z,95424.28
2022-11-17T15:30:16.492Z,95424.72
2022-11-17T15:35:18.204Z,95420.38
2022-11-17T15:40:20.079Z,95411.66
2022-11-17T15:45:21.948Z,95418.50
2022-11-17T15:50:23.656Z,95419.38
2022-11-17T15:55:25.442Z,95403.53
2022-11-17T16:00:27.071Z,95397.94
2022-11-17T16:05:28.757Z,95404.59
2022-11-17T16:10:30.349Z,95403.09
2022-11-17T16:15:32.013Z,95399.97
2022-11-17T16:20:33.769Z,95405.44
2022-11-17T16:25:46.778Z,95407.25
2022-11-17T16:30:48.347Z,95410.00
2022-11-17T16:35:50.238Z,95406.84
2022-11-17T16:40:52.002Z,95408.28
2022-11-17T16:45:53.688Z,95395.25
2022-11-17T16:50:55.352Z,95403.59
2022-11-17T16:56:03.570Z,95396.34
2022-11-17T17:01:12.794Z,95408.50
2022-11-17T17:06:16.948Z,95411.31
2022-11-17T17:11:20.080Z,95406.50
2022-11-17T17:16:22.658Z,95400.88
2022-11-17T17:21:24.424Z,95382.47
2022-11-17T17:26:28.695Z,95390.16
2022-11-17T17:31:33.228Z,95402.06
2022-11-17T17:36:36.425Z,95400.47
2022-11-17T17:41:40.148Z,95401.69
2022-11-17T17:46:42.856Z,95392.38
2022-11-17T17:51:44.822Z,95387.13
2022-11-17T17:56:47.396Z,95380.16
2022-11-17T18:01:49.602Z,95386.72
2022-11-17T18:06:51.420Z,95386.53
2022-11-17T18:11:53.239Z,95391.75
2022-11-17T18:16:55.124Z,95389.53
2022-11-17T18:21:56.786Z,95381.44
2022-11-17T18:26:58.568Z,95376.16
2022-11-17T18:32:00.314Z,95372.56
2022-11-17T18:37:02.158Z,95364.47
2022-11-17T18:42:04.324Z,95373.66
2022-11-17T18:47:06.071Z,95374.47
2022-11-17T18:52:09.744Z,95384.56
2022-11-17T18:57:11.364Z,95373.88
2022-11-17T19:02:13.093Z,95371.63
2022-11-17T19:07:15.417Z,95378.72
2022-11-17T19:12:18.907Z,95373.44
2022-11-17T19:17:21.874Z,95378.78
2022-11-17T19:22:23.792Z,95378.47
2022-11-17T19:27:25.497Z,95376.25
2022-11-17T19:32:27.159Z,95377.25
2022-11-17T19:37:28.990Z,95375.63
2022-11-17T19:42:30.697Z,95370.16
2022-11-17T19:47:32.653Z,95373.38
2022-11-17T19:52:34.707Z,95372.59
2022-11-17T19:57:36.527Z,95381.22
2022-11-17T20:02:38.156Z,95386.19
2022-11-17T20:07:39.838Z,95393.28
2022-11-17T20:12:43.319Z,95389.94
2022-11-17T20:17:45.000Z,95399.72
2022-11-17T20:22:46.960Z,95397.50
2022-11-17T20:27:48.606Z,95407.19
2022-11-17T20:32:50.279Z,95395.00
2022-11-17T20:37:51.905Z,95403.09
2022-11-17T20:42:53.576Z,95406.34
2022-11-17T20:47:55.626Z,95411.00
2022-11-17T20:52:57.322Z,95401.22
2022-11-17T20:57:59.110Z,95405.47
2022-11-17T21:03:00.814Z,95406.63
2022-11-17T21:08:02.518Z,95414.09
2022-11-17T21:13:04.178Z,95417.31
2022-11-17T21:18:23.965Z,95418.66
2022-11-17T21:23:27.243Z,95409.41
2022-11-17T21:28:29.522Z,95405.66
2022-11-17T21:33:31.223Z,95407.47
2022-11-17T21:38:33.286Z,95413.91
2022-11-17T21:43:39.674Z,95421.22
2022-11-17T21:48:42.182Z,95403.44
2022-11-17T21:53:44.601Z,95393.66
2022-11-17T21:58:46.314Z,95380.78
2022-11-17T22:03:48.059Z,95431.44
2022-11-17T22:08:50.762Z,95469.19
2022-11-17T22:13:52.441Z,95487.41
2022-11-17T22:18:54.569Z,95491.44
2022-11-17T22:23:56.611Z,95497.75
2022-11-17T22:28:59.427Z,95504.47
2022-11-17T22:34:01.016Z,95503.97
2022-11-17T22:39:03.625Z,95503.06
2022-11-17T22:44:06.360Z,95504.50
2022-11-17T22:49:08.101Z,95486.19
2022-11-17T22:54:10.081Z,95469.75
2022-11-17T22:59:11.992Z,95477.78
2022-11-17T23:04:14.084Z,95479.84
2022-11-17T23:09:16.042Z,95458.41
2022-11-17T23:14:18.060Z,95486.53
2022-11-17T23:19:20.084Z,95481.72
2022-11-17T23:24:22.097Z,95481.53
2022-11-17T23:29:23.787Z,95485.75
2022-11-17T23:34:27.434Z,95496.00
2022-11-17T23:39:29.252Z,95488.44
2022-11-17T23:44:30.972Z,95484.34
2022-11-17T23:49:32.733Z,95479.84
2022-11-17T23:54:34.486Z,95468.81
2022-11-17T23:59:36.506Z,95477.75
